createdAt,value
2023-01-11T00:01:43.564Z,10.20
2023-01-11T00:04:20.953Z,10.20
2023-01-11T00:07:02.436Z,10.30
2023-01-11T00:09:36.456Z,10.40
2023-01-11T00:12:16.602Z,10.40
2023-01-11T00:14:56.958Z,10.40
2023-01-11T00:17:45.740Z,10.40
2023-01-11T00:20:13.373Z,10.30
2023-01-11T00:22:43.326Z,10.30
2023-01-11T00:25:13.138Z,10.30
2023-01-11T00:27:57.601Z,10.30
2023-01-11T00:30:38.735Z,10.20
2023-01-11T00:33:17.077Z,10.20
2023-01-11T00:35:48.526Z,10.20
2023-01-11T00:38:44.604Z,10.20
2023-01-11T00:41:36.105Z,10.20
2023-01-11T00:44:28.420Z,10.20
2023-01-11T00:47:14.597Z,10.20
2023-01-11T00:49:46.313Z,10.20
2023-01-11T00:52:16.396Z,10.20
2023-01-11T00:54:47.894Z,10.20
2023-01-11T00:57:27.055Z,10.20
2023-01-11T01:00:05.135Z,10.20
2023-01-11T01:02:51.434Z,10.20
2023-01-11T01:05:51.275Z,10.20
2023-01-11T01:08:20.296Z,10.20
2023-01-11T01:10:55.078Z,10.20
2023-01-11T01:13:43.944Z,10.20
2023-01-11T01:16:26.734Z,10.30
2023-01-11T01:19:02.158Z,10.20
2023-01-11T01:21:37.473Z,10.20
2023-01-11T01:24:25.238Z,10.20
2023-01-11T01:29:47.465Z,10.30
2023-01-11T01:32:24.064Z,10.30
2023-01-11T01:35:01.358Z,10.30
2023-01-11T01:37:55.800Z,10.30
2023-01-11T01:40:43.711Z,10.30
2023-01-11T01:43:24.750Z,10.30
2023-01-11T01:45:59.791Z,10.40
2023-01-11T01:48:32.355Z,10.40
2023-01-11T01:51:13.952Z,10.40
2023-01-11T01:53:58.087Z,10.40
2023-01-11T01:56:37.300Z,10.40
2023-01-11T01:59:17.025Z,10.40
2023-01-11T02:01:59.933Z,10.50
2023-01-11T02:05:00.156Z,10.50
2023-01-11T02:07:38.607Z,10.50
2023-01-11T02:10:28.195Z,10.50
2023-01-11T02:13:06.823Z,10.50
2023-01-11T02:15:43.657Z,10.50
2023-01-11T02:18:23.162Z,10.50
2023-01-11T02:21:45.369Z,10.50
2023-01-11T02:24:46.830Z,10.50
2023-01-11T02:28:03.807Z,10.50
2023-01-11T02:30:57.601Z,10.50
2023-01-11T02:34:18.562Z,10.40
2023-01-11T02:36:59.453Z,10.50
2023-01-11T02:39:40.243Z,10.40
2023-01-11T02:42:40.196Z,10.40
2023-01-11T02:45:26.293Z,10.50
2023-01-11T02:48:20.847Z,10.50
2023-01-11T02:51:10.806Z,10.50
2023-01-11T02:54:11.793Z,10.50
2023-01-11T02:56:44.038Z,10.50
2023-01-11T02:59:24.592Z,10.50
2023-01-11T03:01:55.778Z,10.60
2023-01-11T03:04:31.436Z,10.60
2023-01-11T03:07:48.124Z,10.60
2023-01-11T03:10:38.404Z,10.50
2023-01-11T03:13:32.870Z,10.60
2023-01-11T03:16:25.259Z,10.60
2023-01-11T03:19:36.179Z,10.60
2023-01-11T03:22:28.407Z,10.60
2023-01-11T03:25:21.244Z,10.60
2023-01-11T03:28:16.682Z,10.60
2023-01-11T03:30:54.942Z,10.60
2023-01-11T03:33:54.024Z,10.60
2023-01-11T03:36:42.694Z,10.60
2023-01-11T03:39:51.900Z,10.60
2023-01-11T03:43:05.779Z,10.60
2023-01-11T03:45:47.815Z,10.60
2023-01-11T03:48:44.706Z,10.70
2023-01-11T03:51:43.205Z,10.70
2023-01-11T03:54:41.610Z,10.70
2023-01-11T03:57:54.111Z,10.60
2023-01-11T04:00:35.198Z,10.60
2023-01-11T04:03:19.550Z,10.70
2023-01-11T04:06:05.384Z,10.70
2023-01-11T04:08:39.003Z,10.70
2023-01-11T04:11:20.026Z,10.70
2023-01-11T04:13:56.974Z,10.70
2023-01-11T04:16:46.141Z,10.70
2023-01-11T04:19:37.629Z,10.70
2023-01-11T04:22:29.626Z,10.70
2023-01-11T04:25:03.140Z,10.70
2023-01-11T04:27:33.979Z,10.80
2023-01-11T04:30:12.934Z,10.80
2023-01-11T04:32:51.556Z,10.80
2023-01-11T04:35:19.575Z,10.80
2023-01-11T04:37:56.346Z,10.80
2023-01-11T04:40:30.487Z,10.80
2023-01-11T04:43:18.298Z,10.80
2023-01-11T04:45:59.219Z,10.80
2023-01-11T04:49:02.118Z,10.80
2023-01-11T04:51:36.673Z,10.80
2023-01-11T04:54:21.264Z,10.80
2023-01-11T04:56:59.250Z,10.80
2023-01-11T04:59:34.791Z,10.80
2023-01-11T05:05:02.463Z,10.70
2023-01-11T05:07:54.943Z,10.70
2023-01-11T05:10:33.809Z,10.70
2023-01-11T05:13:17.193Z,10.70
2023-01-11T05:15:52.797Z,10.70
2023-01-11T05:18:31.265Z,10.70
2023-01-11T05:21:14.843Z,10.70
2023-01-11T05:23:45.713Z,10.70
2023-01-11T05:26:23.325Z,10.70
2023-01-11T05:29:01.153Z,10.70
2023-01-11T05:31:46.427Z,10.80
2023-01-11T05:34:20.054Z,10.70
2023-01-11T05:36:57.661Z,10.70
2023-01-11T05:39:35.588Z,10.60
2023-01-11T05:42:10.830Z,10.50
2023-01-11T05:45:07.325Z,10.50
2023-01-11T05:47:54.580Z,10.40
2023-01-11T05:50:40.003Z,10.30
2023-01-11T05:53:16.123Z,10.30
2023-01-11T05:58:54.316Z,10.20
2023-01-11T06:01:42.738Z,10.10
2023-01-11T06:04:28.893Z,10.10
2023-01-11T06:07:01.052Z,10.00
2023-01-11T06:09:51.215Z,10.00
2023-01-11T06:12:43.224Z,10.00
2023-01-11T06:15:24.601Z,9.90
2023-01-11T06:18:01.286Z,9.90
2023-01-11T06:21:01.870Z,9.90
2023-01-11T06:23:50.989Z,9.90
2023-01-11T06:26:23.789Z,9.80
2023-01-11T06:29:01.127Z,9.70
2023-01-11T06:31:33.349Z,9.70
2023-01-11T06:34:14.406Z,9.60
2023-01-11T06:36:44.160Z,9.60
2023-01-11T06:39:14.245Z,9.60
2023-01-11T06:41:41.800Z,9.60
2023-01-11T06:44:29.785Z,9.50
2023-01-11T06:47:14.094Z,9.50
2023-01-11T06:49:49.487Z,9.50
2023-01-11T06:52:21.470Z,9.40
2023-01-11T06:55:45.677Z,9.40
2023-01-11T06:58:16.848Z,9.30
2023-01-11T07:00:49.817Z,9.30
2023-01-11T07:04:11.709Z,9.30
2023-01-11T07:07:18.217Z,9.30
2023-01-11T07:10:00.156Z,9.20
2023-01-11T07:12:29.851Z,9.20
2023-01-11T07:14:59.559Z,9.10
2023-01-11T07:17:28.901Z,9.00
2023-01-11T07:19:56.332Z,9.00
2023-01-11T07:22:32.277Z,9.00
2023-01-11T07:25:02.092Z,9.00
2023-01-11T07:27:29.349Z,9.00
2023-01-11T07:29:59.821Z,9.00
2023-01-11T07:32:30.032Z,9.00
2023-01-11T07:35:03.350Z,8.90
2023-01-11T07:37:46.785Z,8.80
2023-01-11T07:40:16.396Z,8.70
2023-01-11T07:43:14.708Z,8.70
2023-01-11T07:45:47.074Z,8.60
2023-01-11T07:48:20.774Z,8.60
2023-01-11T07:50:48.597Z,8.50
2023-01-11T07:53:36.218Z,8.50
2023-01-11T07:56:06.153Z,8.50
2023-01-11T07:58:33.460Z,8.40
2023-01-11T08:01:00.767Z,8.30
2023-01-11T08:03:28.349Z,8.30
2023-01-11T08:05:57.833Z,8.30
2023-01-11T08:08:25.075Z,8.30
2023-01-11T08:11:12.209Z,8.20
2023-01-11T08:13:58.065Z,8.20
2023-01-11T08:16:27.347Z,8.10
2023-01-11T08:18:54.631Z,8.00
2023-01-11T08:21:21.726Z,8.00
2023-01-11T08:23:48.844Z,8.00
2023-01-11T08:26:17.961Z,8.00
2023-01-11T08:28:46.389Z,8.00
2023-01-11T08:31:13.998Z,8.00
2023-01-11T08:33:41.582Z,8.00
2023-01-11T08:36:11.291Z,8.00
2023-01-11T08:38:39.846Z,8.00
2023-01-11T08:41:14.673Z,8.00
2023-01-11T08:43:42.827Z,8.10
2023-01-11T08:46:10.863Z,8.10
2023-01-11T08:48:38.078Z,8.10
2023-01-11T08:51:05.520Z,8.00
2023-01-11T08:53:32.635Z,7.90
2023-01-11T08:55:59.889Z,7.90
2023-01-11T08:58:27.152Z,7.90
2023-01-11T09:01:52.320Z,7.90
2023-01-11T09:04:24.356Z,7.90
2023-01-11T09:07:14.234Z,7.80
2023-01-11T09:09:45.289Z,7.80
2023-01-11T09:12:15.222Z,7.80
2023-01-11T09:14:58.305Z,7.70
2023-01-11T09:17:25.712Z,7.70
2023-01-11T09:19:53.192Z,7.70
2023-01-11T09:22:27.935Z,7.70
2023-01-11T09:25:07.020Z,7.70
2023-01-11T09:27:36.720Z,7.80
2023-01-11T09:30:06.973Z,7.80
2023-01-11T09:32:40.076Z,7.90
2023-01-11T09:35:08.503Z,7.90
2023-01-11T09:37:39.906Z,8.00
2023-01-11T09:40:43.328Z,8.10
2023-01-11T09:43:17.089Z,8.20
2023-01-11T09:45:52.404Z,8.20
2023-01-11T09:48:28.906Z,8.30
2023-01-11T09:51:11.110Z,8.40
2023-01-11T09:53:40.901Z,8.40
2023-01-11T09:56:23.975Z,8.50
2023-01-11T09:59:34.767Z,8.50
2023-01-11T10:02:38.608Z,8.60
2023-01-11T10:05:31.227Z,8.70
2023-01-11T10:18:25.680Z,8.70
2023-01-11T10:18:57.926Z,8.80
2023-01-11T10:21:35.880Z,8.90
2023-01-11T10:24:14.836Z,8.90
2023-01-11T10:26:42.393Z,9.00
2023-01-11T10:29:21.139Z,9.00
2023-01-11T10:32:25.809Z,9.00
2023-01-11T10:35:00.752Z,9.00
2023-01-11T10:38:10.557Z,9.00
2023-01-11T10:41:12.327Z,9.10
2023-01-11T10:43:44.700Z,9.10
2023-01-11T10:46:17.375Z,9.10
2023-01-11T10:48:47.096Z,9.20
2023-01-11T10:51:38.829Z,9.20
2023-01-11T10:54:18.328Z,9.20
2023-01-11T10:57:02.771Z,9.30
2023-01-11T10:59:52.551Z,9.30
2023-01-11T11:03:02.252Z,9.30
2023-01-11T11:06:05.403Z,9.40
2023-01-11T11:08:38.199Z,9.40
2023-01-11T11:11:51.309Z,9.50
2023-01-11T11:14:41.820Z,9.40
2023-01-11T11:17:29.174Z,9.40
2023-01-11T11:19:58.003Z,9.50
2023-01-11T11:22:27.255Z,9.70
2023-01-11T11:25:08.726Z,9.80
2023-01-11T11:27:44.395Z,9.90
2023-01-11T11:30:14.949Z,10.10
2023-01-11T11:33:01.516Z,10.20
2023-01-11T11:35:42.145Z,10.30
2023-01-11T11:38:26.020Z,10.20
2023-01-11T11:41:08.981Z,10.20
2023-01-11T11:43:42.237Z,10.20
2023-01-11T11:46:22.733Z,10.10
2023-01-11T11:49:17.739Z,10.00
2023-01-11T11:51:50.332Z,10.00
2023-01-11T11:54:40.786Z,9.90
2023-01-11T11:57:34.435Z,10.00
2023-01-11T12:00:44.680Z,10.00
2023-01-11T12:03:37.128Z,10.00
2023-01-11T12:06:38.380Z,10.00
2023-01-11T12:09:46.632Z,10.10
2023-01-11T12:12:28.580Z,10.30
2023-01-11T12:15:55.655Z,10.40
2023-01-11T12:18:44.419Z,10.20
2023-01-11T12:21:35.050Z,10.20
2023-01-11T12:24:11.815Z,10.10
2023-01-11T12:27:23.873Z,10.10
2023-01-11T12:30:32.561Z,10.10
2023-01-11T12:33:53.057Z,10.00
2023-01-11T12:36:31.636Z,10.00
2023-01-11T12:39:49.002Z,10.20
2023-01-11T12:42:43.612Z,10.40
2023-01-11T12:46:10.650Z,10.30
2023-01-11T12:49:07.688Z,10.30
2023-01-11T12:52:42.303Z,10.40
2023-01-11T12:56:02.679Z,10.60
2023-01-11T12:59:35.111Z,10.80
2023-01-11T13:02:48.606Z,10.90
2023-01-11T13:06:26.436Z,10.60
2023-01-11T13:09:34.100Z,10.50
2023-01-11T13:12:52.902Z,10.40
2023-01-11T13:16:20.672Z,10.30
2023-01-11T13:18:54.484Z,10.30
2023-01-11T13:21:52.745Z,10.20
2023-01-11T13:25:00.237Z,10.10
2023-01-11T13:28:10.977Z,10.10
2023-01-11T13:31:08.851Z,10.00
2023-01-11T13:34:18.085Z,9.90
2023-01-11T13:38:02.125Z,9.80
2023-01-11T13:45:00.761Z,9.80
2023-01-11T13:48:14.184Z,9.80
2023-01-11T13:52:40.570Z,9.70
2023-01-11T13:54:18.745Z,9.80
2023-01-11T13:57:30.444Z,10.00
2023-01-11T14:00:29.571Z,9.90
2023-01-11T14:03:53.720Z,9.90
2023-01-11T14:06:43.989Z,9.80
2023-01-11T14:09:56.972Z,9.80
2023-01-11T14:12:59.725Z,9.60
2023-01-11T14:16:56.595Z,9.70
2023-01-11T14:19:55.551Z,9.70
2023-01-11T14:23:09.651Z,9.80
2023-01-11T14:26:29.098Z,9.80
2023-01-11T14:30:29.037Z,9.70
2023-01-11T14:33:14.582Z,9.50
2023-01-11T14:36:15.672Z,9.30
2023-01-11T14:39:44.650Z,9.20
2023-01-11T14:42:44.718Z,9.20
2023-01-11T14:46:21.930Z,9.10
2023-01-11T14:50:34.410Z,9.10
2023-01-11T14:52:49.269Z,8.90
2023-01-11T14:55:28.223Z,8.80
2023-01-11T14:58:28.525Z,8.80
2023-01-11T15:01:05.523Z,8.70
2023-01-11T15:03:49.213Z,8.70
2023-01-11T15:06:23.008Z,8.60
2023-01-11T15:08:55.079Z,8.60
2023-01-11T15:11:33.320Z,8.60
2023-01-11T15:14:29.609Z,8.60
2023-01-11T15:17:20.062Z,8.60
2023-01-11T15:19:51.459Z,8.60
2023-01-11T15:22:33.553Z,8.70
2023-01-11T15:25:06.356Z,8.70
2023-01-11T15:27:47.825Z,8.70
2023-01-11T15:30:31.444Z,8.70
2023-01-11T15:33:17.591Z,8.70
2023-01-11T15:35:57.110Z,8.70
2023-01-11T15:38:57.545Z,8.70
2023-01-11T15:42:12.165Z,8.60
2023-01-11T15:45:05.658Z,8.50
2023-01-11T15:48:09.711Z,8.40
2023-01-11T15:51:18.419Z,8.40
2023-01-11T15:54:13.898Z,8.50
2023-01-11T15:57:02.047Z,8.50
2023-01-11T15:59:41.350Z,8.50
2023-01-11T16:02:14.603Z,8.50
2023-01-11T16:04:57.514Z,8.60
2023-01-11T16:08:14.959Z,8.60
2023-01-11T16:11:05.845Z,8.60
2023-01-11T16:14:04.931Z,8.60
2023-01-11T16:16:40.259Z,8.70
2023-01-11T16:19:23.398Z,8.60
2023-01-11T16:21:58.931Z,8.50
2023-01-11T16:24:29.633Z,8.50
2023-01-11T16:27:10.839Z,8.50
2023-01-11T16:29:51.511Z,8.40
2023-01-11T16:32:44.021Z,8.40
2023-01-11T16:35:29.436Z,8.40
2023-01-11T16:38:20.843Z,8.40
2023-01-11T16:40:55.738Z,8.50
2023-01-11T16:43:35.934Z,8.40
2023-01-11T16:46:17.597Z,8.30
2023-01-11T16:49:22.216Z,8.30
2023-01-11T16:52:19.079Z,8.30
2023-01-11T16:55:02.471Z,8.40
2023-01-11T16:57:43.299Z,8.50
2023-01-11T17:00:32.224Z,8.50
2023-01-11T17:03:50.827Z,8.50
2023-01-11T17:06:27.142Z,8.50
2023-01-11T17:09:22.652Z,8.50
2023-01-11T17:12:22.457Z,8.50
2023-01-11T17:15:34.348Z,8.50
2023-01-11T17:18:07.475Z,8.40
2023-01-11T17:20:40.958Z,8.30
2023-01-11T17:23:17.220Z,8.30
2023-01-11T17:26:02.031Z,8.20
2023-01-11T17:28:38.299Z,8.20
2023-01-11T17:31:11.909Z,8.10
2023-01-11T17:33:43.037Z,8.10
2023-01-11T17:36:13.787Z,8.10
2023-01-11T17:38:43.720Z,8.10
2023-01-11T17:41:55.157Z,8.20
2023-01-11T17:45:08.050Z,8.20
2023-01-11T17:47:49.813Z,8.30
2023-01-11T17:50:31.179Z,8.30
2023-01-11T17:53:23.658Z,8.40
2023-01-11T17:56:04.635Z,8.40
2023-01-11T17:58:39.066Z,8.50
2023-01-11T18:01:14.828Z,8.50
2023-01-11T18:04:09.658Z,8.40
2023-01-11T18:07:12.802Z,8.40
2023-01-11T18:10:03.899Z,8.30
2023-01-11T18:12:38.187Z,8.30
2023-01-11T18:15:55.653Z,8.20
2023-01-11T18:19:09.575Z,8.20
2023-01-11T18:21:51.292Z,8.20
2023-01-11T18:24:47.224Z,8.10
2023-01-11T18:27:28.549Z,8.20
2023-01-11T18:30:06.186Z,8.20
2023-01-11T18:32:48.153Z,8.10
2023-01-11T18:36:26.006Z,8.20
2023-01-11T18:38:51.718Z,8.20
2023-01-11T18:42:06.075Z,8.30
2023-01-11T18:45:37.644Z,8.30
2023-01-11T18:48:15.465Z,8.30
2023-01-11T18:50:56.299Z,8.30
2023-01-11T18:57:41.205Z,8.40
2023-01-11T19:04:22.419Z,8.30
2023-01-11T19:07:07.804Z,8.40
2023-01-11T19:14:20.662Z,8.40
2023-01-11T19:18:51.268Z,8.40
2023-01-11T19:25:52.405Z,8.40
2023-01-11T19:29:48.972Z,8.50
2023-01-11T19:34:16.803Z,8.40
2023-01-11T19:36:16.614Z,8.50
2023-01-11T19:39:40.852Z,8.50
2023-01-11T19:42:52.119Z,8.60
2023-01-11T19:45:59.123Z,8.60
2023-01-11T19:49:02.439Z,8.70
2023-01-11T19:52:15.397Z,8.70
2023-01-11T19:54:57.610Z,8.70
2023-01-11T19:58:08.898Z,8.80
2023-01-11T20:00:47.353Z,8.70
2023-01-11T20:11:58.094Z,8.40
2023-01-11T20:15:47.185Z,8.30
2023-01-11T20:18:03.083Z,8.30
2023-01-11T20:21:51.790Z,8.20
2023-01-11T20:24:42.008Z,8.20
2023-01-11T20:31:30.510Z,8.20
2023-01-11T20:34:42.751Z,8.20
2023-01-11T20:37:21.760Z,8.20
2023-01-11T20:40:20.550Z,8.20
2023-01-11T20:43:29.680Z,8.20
2023-01-11T20:48:02.032Z,8.20
2023-01-11T20:50:28.397Z,8.30
2023-01-11T20:53:18.885Z,8.40
2023-01-11T20:59:43.317Z,8.40
2023-01-11T21:06:29.667Z,8.40
2023-01-11T21:12:25.748Z,8.40
2023-01-11T21:18:26.066Z,8.40
2023-01-11T21:21:31.588Z,8.30
2023-01-11T21:24:25.130Z,8.40
2023-01-11T21:28:41.799Z,8.40
2023-01-11T21:31:29.735Z,8.40
2023-01-11T21:41:58.762Z,8.30
2023-01-11T21:45:01.059Z,8.30
2023-01-11T21:47:55.510Z,8.20
2023-01-11T21:50:49.485Z,8.20
2023-01-11T21:54:41.353Z,8.10
2023-01-11T21:57:23.324Z,8.10
2023-01-11T22:00:32.284Z,8.00
2023-01-11T22:10:47.208Z,7.90
2023-01-11T22:13:25.899Z,7.90
2023-01-11T22:24:25.687Z,7.90
2023-01-11T22:26:44.915Z,7.90
2023-01-11T22:29:33.864Z,7.80
2023-01-11T22:32:53.199Z,7.80
2023-01-11T22:35:33.018Z,7.80
2023-01-11T22:38:14.220Z,7.80
2023-01-11T22:41:11.287Z,7.80
2023-01-11T22:44:04.764Z,7.80
2023-01-11T22:48:26.376Z,7.80
2023-01-11T22:50:58.301Z,7.80
2023-01-11T22:53:55.902Z,7.80
2023-01-11T22:57:01.492Z,7.70
2023-01-11T23:00:12.717Z,7.70
2023-01-11T23:08:51.726Z,7.80
2023-01-11T23:12:27.617Z,7.90
2023-01-11T23:15:29.050Z,7.80
2023-01-11T23:18:25.578Z,7.80
2023-01-11T23:21:25.211Z,7.80
2023-01-11T23:24:11.180Z,7.70
2023-01-11T23:26:48.962Z,7.70
2023-01-11T23:29:38.477Z,7.70
2023-01-11T23:32:58.333Z,7.70
2023-01-11T23:35:34.031Z,7.70
2023-01-11T23:38:21.544Z,7.70
2023-01-11T23:41:23.887Z,7.70
2023-01-11T23:44:19.288Z,7.70
2023-01-11T23:47:37.722Z,7.70
2023-01-11T23:50:29.346Z,7.70
2023-01-11T23:53:23.083Z,7.70
2023-01-11T23:56:04.591Z,7.60
2023-01-11T23:58:36.108Z,7.60
